createdAt,value
2023-01-11T00:00:31.406Z,98536.06
2023-01-11T00:03:00.715Z,98528.88
2023-01-11T00:05:27.736Z,98521.75
2023-01-11T00:07:55.404Z,98518.03
2023-01-11T00:10:22.763Z,98528.03
2023-01-11T00:12:49.978Z,98516.66
2023-01-11T00:15:17.186Z,98508.69
2023-01-11T00:17:44.551Z,98506.84
2023-01-11T00:20:11.998Z,98508.06
2023-01-11T00:22:39.023Z,98503.78
2023-01-11T00:25:06.701Z,98507.06
2023-01-11T00:27:34.141Z,98504.44
2023-01-11T00:30:01.552Z,98513.06
2023-01-11T00:32:28.963Z,98507.81
2023-01-11T00:34:56.297Z,98511.28
2023-01-11T00:37:23.640Z,98498.28
2023-01-11T00:39:51.510Z,98504.31
2023-01-11T00:42:37.689Z,98501.69
2023-01-11T00:45:23.858Z,98490.09
2023-01-11T00:47:57.116Z,98480.47
2023-01-11T00:50:36.445Z,98472.38
2023-01-11T00:53:04.598Z,98464.09
2023-01-11T00:55:32.244Z,98467.66
2023-01-11T00:57:59.724Z,98465.06
2023-01-11T01:00:28.366Z,98466.41
2023-01-11T01:02:55.813Z,98468.97
2023-01-11T01:05:23.740Z,98470.72
2023-01-11T01:07:51.106Z,98461.59
2023-01-11T01:10:19.275Z,98461.44
2023-01-11T01:13:05.085Z,98456.09
2023-01-11T01:15:32.864Z,98455.94
2023-01-11T01:18:00.428Z,98455.03
2023-01-11T01:20:28.748Z,98456.81
2023-01-11T01:22:56.177Z,98448.59
2023-01-11T01:25:23.528Z,98445.66
2023-01-11T01:27:51.055Z,98445.72
2023-01-11T01:30:18.579Z,98441.91
2023-01-11T01:32:45.957Z,98439.78
2023-01-11T01:35:13.380Z,98439.47
2023-01-11T01:37:40.799Z,98440.88
2023-01-11T01:40:08.928Z,98442.56
2023-01-11T01:42:36.263Z,98437.16
2023-01-11T01:45:26.298Z,98449.00
2023-01-11T01:47:55.162Z,98435.66
2023-01-11T01:50:26.998Z,98436.69
2023-01-11T01:52:57.086Z,98435.84
2023-01-11T01:55:28.923Z,98432.44
2023-01-11T01:57:57.091Z,98417.34
2023-01-11T02:00:24.431Z,98410.63
2023-01-11T02:02:52.752Z,98422.28
2023-01-11T02:05:20.359Z,98414.50
2023-01-11T02:07:48.068Z,98412.63
2023-01-11T02:10:18.740Z,98411.16
2023-01-11T02:13:01.862Z,98400.41
2023-01-11T02:15:29.902Z,98401.72
2023-01-11T02:17:57.206Z,98406.28
2023-01-11T02:20:33.246Z,98405.06
2023-01-11T02:23:19.310Z,98387.25
2023-01-11T02:26:04.653Z,98384.41
2023-01-11T02:28:50.606Z,98389.47
2023-01-11T02:31:36.570Z,98388.19
2023-01-11T02:34:22.212Z,98383.69
2023-01-11T02:37:04.380Z,98370.81
2023-01-11T02:40:10.649Z,98376.66
2023-01-11T02:42:58.384Z,98369.34
2023-01-11T02:45:55.010Z,98365.47
2023-01-11T02:48:50.955Z,98377.34
2023-01-11T02:51:27.785Z,98378.88
2023-01-11T02:54:02.852Z,98368.88
2023-01-11T02:56:32.708Z,98352.91
2023-01-11T02:59:01.452Z,98364.91
2023-01-11T03:01:28.942Z,98359.22
2023-01-11T03:03:56.302Z,98364.25
2023-01-11T03:06:27.551Z,98366.06
2023-01-11T03:09:20.960Z,98373.59
2023-01-11T03:12:19.062Z,98365.00
2023-01-11T03:14:57.812Z,98370.66
2023-01-11T03:17:43.919Z,98364.16
2023-01-11T03:20:36.001Z,98348.03
2023-01-11T03:23:08.420Z,98345.94
2023-01-11T03:26:19.066Z,98353.50
2023-01-11T03:28:49.231Z,98352.28
2023-01-11T03:31:39.596Z,98352.06
2023-01-11T03:34:42.397Z,98345.31
2023-01-11T03:37:16.614Z,98355.53
2023-01-11T03:40:25.923Z,98341.94
2023-01-11T03:43:12.910Z,98347.53
2023-01-11T03:46:09.491Z,98346.69
2023-01-11T03:48:46.422Z,98350.78
2023-01-11T03:51:17.709Z,98351.63
2023-01-11T03:53:47.050Z,98350.78
2023-01-11T03:56:17.095Z,98350.38
2023-01-11T03:58:44.754Z,98338.97
2023-01-11T04:01:12.537Z,98331.72
2023-01-11T04:03:39.895Z,98331.16
2023-01-11T04:06:08.717Z,98330.75
2023-01-11T04:08:36.152Z,98330.34
2023-01-11T04:11:04.950Z,98333.72
2023-01-11T04:13:34.009Z,98331.28
2023-01-11T04:16:01.520Z,98318.53
2023-01-11T04:18:28.703Z,98320.84
2023-01-11T04:20:55.910Z,98302.63
2023-01-11T04:23:22.846Z,98300.72
2023-01-11T04:25:49.828Z,98304.41
2023-01-11T04:28:16.805Z,98301.06
2023-01-11T04:30:43.795Z,98301.34
2023-01-11T04:33:13.116Z,98301.56
2023-01-11T04:35:40.199Z,98296.19
2023-01-11T04:38:07.156Z,98292.59
2023-01-11T04:40:34.102Z,98293.88
2023-01-11T04:43:02.329Z,98294.28
2023-01-11T04:45:30.720Z,98294.91
2023-01-11T04:47:58.495Z,98280.44
2023-01-11T04:50:26.683Z,98273.50
2023-01-11T04:52:54.502Z,98274.63
2023-01-11T04:55:21.990Z,98276.75
2023-01-11T04:57:49.800Z,98274.75
2023-01-11T05:00:17.412Z,98276.81
2023-01-11T05:02:44.377Z,98285.78
2023-01-11T05:05:12.121Z,98274.69
2023-01-11T05:07:39.303Z,98261.75
2023-01-11T05:10:06.985Z,98255.84
2023-01-11T05:12:33.967Z,98261.63
2023-01-11T05:15:00.943Z,98257.41
2023-01-11T05:17:28.294Z,98271.22
2023-01-11T05:19:55.747Z,98270.25
2023-01-11T05:22:23.147Z,98265.31
2023-01-11T05:24:50.522Z,98254.78
2023-01-11T05:27:17.846Z,98261.75
2023-01-11T05:29:45.173Z,98256.47
2023-01-11T05:32:12.880Z,98247.50
2023-01-11T05:34:40.272Z,98248.25
2023-01-11T05:37:07.573Z,98248.28
2023-01-11T05:39:35.023Z,98242.38
2023-01-11T05:42:02.334Z,98250.88
2023-01-11T05:44:48.557Z,98248.88
2023-01-11T05:47:15.963Z,98239.78
2023-01-11T05:49:43.395Z,98242.19
2023-01-11T05:52:10.708Z,98248.06
2023-01-11T05:54:38.154Z,98240.63
2023-01-11T05:57:10.491Z,98230.09
2023-01-11T05:59:37.979Z,98239.41
2023-01-11T06:02:05.388Z,98233.69
2023-01-11T06:04:32.449Z,98235.69
2023-01-11T06:06:59.531Z,98237.63
2023-01-11T06:09:27.099Z,98240.97
2023-01-11T06:11:54.384Z,98236.78
2023-01-11T06:14:21.795Z,98233.19
2023-01-11T06:16:49.187Z,98230.94
2023-01-11T06:19:16.648Z,98229.50
2023-01-11T06:21:44.065Z,98230.66
2023-01-11T06:24:11.072Z,98223.91
2023-01-11T06:26:38.402Z,98213.75
2023-01-11T06:29:05.330Z,98211.13
2023-01-11T06:31:32.261Z,98210.63
2023-01-11T06:33:59.184Z,98217.19
2023-01-11T06:36:27.702Z,98213.72
2023-01-11T06:38:55.829Z,98214.94
2023-01-11T06:41:22.750Z,98202.97
2023-01-11T06:43:51.201Z,98199.34
2023-01-11T06:46:18.927Z,98194.31
2023-01-11T06:48:46.676Z,98197.38
2023-01-11T06:51:15.233Z,98202.09
2023-01-11T06:53:43.782Z,98201.03
2023-01-11T06:56:18.774Z,98203.50
2023-01-11T06:58:48.056Z,98197.97
2023-01-11T07:01:16.762Z,98200.25
2023-01-11T07:03:45.367Z,98205.06
2023-01-11T07:06:12.381Z,98206.59
2023-01-11T07:08:39.681Z,98197.72
2023-01-11T07:11:07.238Z,98202.81
2023-01-11T07:13:35.268Z,98207.50
2023-01-11T07:16:02.733Z,98213.63
2023-01-11T07:18:31.794Z,98212.59
2023-01-11T07:20:59.250Z,98204.59
2023-01-11T07:23:26.269Z,98198.41
2023-01-11T07:25:53.301Z,98193.69
2023-01-11T07:28:20.630Z,98196.00
2023-01-11T07:30:58.235Z,98189.38
2023-01-11T07:33:26.137Z,98192.72
2023-01-11T07:35:53.605Z,98191.03
2023-01-11T07:38:21.106Z,98189.03
2023-01-11T07:40:48.522Z,98188.28
2023-01-11T07:43:16.067Z,98183.53
2023-01-11T07:45:49.620Z,98188.72
2023-01-11T07:48:21.500Z,98184.28
2023-01-11T07:50:49.153Z,98186.38
2023-01-11T07:53:16.784Z,98199.19
2023-01-11T07:55:44.359Z,98192.88
2023-01-11T07:58:12.813Z,98191.72
2023-01-11T08:00:41.139Z,98189.09
2023-01-11T08:03:09.209Z,98191.25
2023-01-11T08:05:36.652Z,98190.50
2023-01-11T08:08:04.628Z,98186.91
2023-01-11T08:10:32.240Z,98191.56
2023-01-11T08:13:18.579Z,98195.06
2023-01-11T08:15:46.123Z,98193.19
2023-01-11T08:18:14.039Z,98187.13
2023-01-11T08:20:41.760Z,98188.25
2023-01-11T08:23:10.089Z,98184.88
2023-01-11T08:25:38.045Z,98203.66
2023-01-11T08:28:07.508Z,98200.84
2023-01-11T08:30:35.761Z,98201.09
2023-01-11T08:33:03.809Z,98202.19
2023-01-11T08:35:32.011Z,98204.00
2023-01-11T08:37:59.366Z,98202.72
2023-01-11T08:40:26.402Z,98216.13
2023-01-11T08:42:57.350Z,98207.25
2023-01-11T08:45:25.183Z,98216.16
2023-01-11T08:47:52.500Z,98214.13
2023-01-11T08:50:19.968Z,98202.97
2023-01-11T08:52:49.592Z,98202.97
2023-01-11T08:55:17.021Z,98202.22
2023-01-11T08:57:44.991Z,98206.09
2023-01-11T09:00:12.800Z,98207.38
2023-01-11T09:02:41.362Z,98205.97
2023-01-11T09:05:09.395Z,98203.44
2023-01-11T09:07:36.789Z,98206.78
2023-01-11T09:10:04.784Z,98211.00
2023-01-11T09:12:32.778Z,98201.75
2023-01-11T09:15:00.436Z,98207.63
2023-01-11T09:17:27.927Z,98209.06
2023-01-11T09:19:55.367Z,98204.03
2023-01-11T09:22:22.843Z,98205.94
2023-01-11T09:24:50.203Z,98200.91
2023-01-11T09:27:17.641Z,98199.34
2023-01-11T09:29:46.051Z,98195.16
2023-01-11T09:32:13.510Z,98198.03
2023-01-11T09:34:41.779Z,98198.25
2023-01-11T09:37:09.067Z,98192.97
2023-01-11T09:39:37.140Z,98198.13
2023-01-11T09:42:35.395Z,98202.56
2023-01-11T09:45:17.740Z,98196.22
2023-01-11T09:47:47.144Z,98201.38
2023-01-11T09:50:40.017Z,98195.97
2023-01-11T09:53:10.553Z,98190.47
2023-01-11T09:55:41.184Z,98196.34
2023-01-11T09:58:08.509Z,98194.19
2023-01-11T10:00:51.017Z,98194.78
2023-01-11T10:03:39.961Z,98187.00
2023-01-11T10:06:25.749Z,98178.84
2023-01-11T10:18:29.329Z,98181.72
2023-01-11T10:18:58.322Z,98176.81
2023-01-11T10:21:32.543Z,98177.53
2023-01-11T10:24:12.334Z,98177.03
2023-01-11T10:26:41.402Z,98178.09
2023-01-11T10:29:42.618Z,98176.03
2023-01-11T10:32:43.559Z,98178.75
2023-01-11T10:35:58.907Z,98179.28
2023-01-11T10:38:57.441Z,98181.81
2023-01-11T10:41:38.769Z,98172.28
2023-01-11T10:44:09.942Z,98174.66
2023-01-11T10:46:41.523Z,98168.91
2023-01-11T10:49:49.938Z,98166.22
2023-01-11T10:52:35.279Z,98171.63
2023-01-11T10:55:13.170Z,98169.75
2023-01-11T10:58:13.204Z,98160.81
2023-01-11T11:01:08.437Z,98153.56
2023-01-11T11:03:45.144Z,98144.38
2023-01-11T11:06:35.309Z,98139.47
2023-01-11T11:09:34.626Z,98136.00
2023-01-11T11:12:14.189Z,98142.47
2023-01-11T11:14:51.645Z,98145.16
2023-01-11T11:17:25.954Z,98138.78
2023-01-11T11:19:53.713Z,98134.59
2023-01-11T11:22:21.204Z,98133.63
2023-01-11T11:25:04.533Z,98122.94
2023-01-11T11:27:42.322Z,98114.34
2023-01-11T11:30:14.915Z,98118.97
2023-01-11T11:32:50.769Z,98119.00
2023-01-11T11:35:38.765Z,98111.31
2023-01-11T11:38:07.479Z,98107.84
2023-01-11T11:40:37.877Z,98107.13
2023-01-11T11:43:16.689Z,98098.88
2023-01-11T11:46:01.303Z,98093.94
2023-01-11T11:48:31.882Z,98092.50
2023-01-11T11:51:05.508Z,98090.47
2023-01-11T11:53:43.078Z,98086.97
2023-01-11T11:56:41.697Z,98084.22
2023-01-11T11:59:15.979Z,98080.72
2023-01-11T12:01:47.556Z,98086.97
2023-01-11T12:04:20.442Z,98079.78
2023-01-11T12:07:15.030Z,98072.91
2023-01-11T12:09:48.971Z,98077.38
2023-01-11T12:12:25.585Z,98065.50
2023-01-11T12:15:15.573Z,98065.00
2023-01-11T12:17:43.048Z,98069.09
2023-01-11T12:20:22.670Z,98061.19
2023-01-11T12:22:51.347Z,98075.44
2023-01-11T12:25:21.882Z,98065.72
2023-01-11T12:28:14.726Z,98065.81
2023-01-11T12:31:11.601Z,98061.97
2023-01-11T12:33:58.061Z,98068.16
2023-01-11T12:36:55.454Z,98071.09
2023-01-11T12:40:01.024Z,98066.06
2023-01-11T12:42:49.923Z,98065.19
2023-01-11T12:45:40.709Z,98062.97
2023-01-11T12:48:36.664Z,98063.91
2023-01-11T12:51:25.827Z,98065.59
2023-01-11T12:54:29.666Z,98061.97
2023-01-11T12:57:26.996Z,98060.44
2023-01-11T13:00:21.895Z,98068.59
2023-01-11T13:03:16.772Z,98065.00
2023-01-11T13:06:25.560Z,98060.91
2023-01-11T13:09:32.483Z,98070.53
2023-01-11T13:12:09.107Z,98071.47
2023-01-11T13:15:11.496Z,98078.09
2023-01-11T13:18:20.673Z,98086.22
2023-01-11T13:21:11.294Z,98087.09
2023-01-11T13:24:07.347Z,98088.38
2023-01-11T13:26:48.475Z,98088.66
2023-01-11T13:29:27.831Z,98090.31
2023-01-11T13:32:00.597Z,98087.44
2023-01-11T13:34:35.634Z,98089.25
2023-01-11T13:37:16.327Z,98085.53
2023-01-11T13:39:46.844Z,98085.28
2023-01-11T13:42:27.671Z,98086.00
2023-01-11T13:45:11.198Z,98097.63
2023-01-11T13:47:43.927Z,98105.41
2023-01-11T13:50:37.628Z,98103.03
2023-01-11T13:53:16.073Z,98104.00
2023-01-11T13:56:02.868Z,98113.69
2023-01-11T13:58:42.597Z,98126.06
2023-01-11T14:01:19.513Z,98131.47
2023-01-11T14:03:55.238Z,98130.63
2023-01-11T14:06:31.792Z,98146.81
2023-01-11T14:09:20.950Z,98152.09
2023-01-11T14:12:06.310Z,98154.88
2023-01-11T14:14:52.561Z,98162.16
2023-01-11T14:17:38.368Z,98168.53
2023-01-11T14:20:28.748Z,98174.78
2023-01-11T14:23:11.908Z,98168.88
2023-01-11T14:25:58.095Z,98165.06
2023-01-11T14:28:44.603Z,98178.38
2023-01-11T14:31:27.081Z,98196.34
2023-01-11T14:34:21.099Z,98197.56
2023-01-11T14:37:13.343Z,98199.34
2023-01-11T14:40:00.511Z,98213.41
2023-01-11T14:42:42.834Z,98207.13
2023-01-11T14:45:27.209Z,98209.16
2023-01-11T14:48:09.574Z,98207.59
2023-01-11T14:51:07.031Z,98211.66
2023-01-11T14:53:43.672Z,98221.00
2023-01-11T14:56:44.773Z,98222.41
2023-01-11T14:59:37.680Z,98225.06
2023-01-11T15:02:04.762Z,98234.66
2023-01-11T15:04:59.797Z,98236.56
2023-01-11T15:07:30.195Z,98236.78
2023-01-11T15:10:04.552Z,98245.56
2023-01-11T15:12:38.901Z,98246.50
2023-01-11T15:15:17.733Z,98251.25
2023-01-11T15:18:04.180Z,98250.53
2023-01-11T15:20:33.597Z,98257.75
2023-01-11T15:23:03.659Z,98253.56
2023-01-11T15:25:35.588Z,98257.03
2023-01-11T15:28:35.040Z,98269.63
2023-01-11T15:31:06.165Z,98264.44
2023-01-11T15:33:47.904Z,98269.13
2023-01-11T15:36:15.642Z,98270.19
2023-01-11T15:39:02.039Z,98273.16
2023-01-11T15:42:05.988Z,98267.16
2023-01-11T15:45:06.953Z,98285.91
2023-01-11T15:48:14.489Z,98285.72
2023-01-11T15:51:20.221Z,98293.81
2023-01-11T15:54:02.057Z,98294.16
2023-01-11T15:57:19.311Z,98300.06
2023-01-11T16:00:33.169Z,98303.94
2023-01-11T16:03:10.852Z,98303.03
2023-01-11T16:05:44.098Z,98310.63
2023-01-11T16:08:33.418Z,98320.09
2023-01-11T16:11:06.023Z,98327.28
2023-01-11T16:14:17.795Z,98337.66
2023-01-11T16:16:51.677Z,98340.06
2023-01-11T16:19:25.555Z,98338.34
2023-01-11T16:21:59.248Z,98355.13
2023-01-11T16:24:29.570Z,98343.13
2023-01-11T16:27:00.349Z,98349.22
2023-01-11T16:29:31.970Z,98359.75
2023-01-11T16:32:01.092Z,98366.97
2023-01-11T16:34:37.703Z,98365.56
2023-01-11T16:37:21.434Z,98384.75
2023-01-11T16:39:52.253Z,98388.13
2023-01-11T16:42:20.168Z,98389.19
2023-01-11T16:45:01.526Z,98392.56
2023-01-11T16:47:28.491Z,98403.19
2023-01-11T16:50:13.998Z,98413.44
2023-01-11T16:52:58.899Z,98418.78
2023-01-11T16:55:30.127Z,98433.84
2023-01-11T16:58:01.368Z,98437.56
2023-01-11T17:00:36.533Z,98441.66
2023-01-11T17:03:25.898Z,98445.97
2023-01-11T17:06:09.200Z,98438.81
2023-01-11T17:08:38.895Z,98448.91
2023-01-11T17:11:29.801Z,98448.31
2023-01-11T17:14:50.137Z,98456.50
2023-01-11T17:17:17.547Z,98465.34
2023-01-11T17:19:50.519Z,98470.28
2023-01-11T17:22:33.100Z,98469.84
2023-01-11T17:25:07.375Z,98470.59
2023-01-11T17:27:41.268Z,98473.94
2023-01-11T17:30:17.581Z,98484.88
2023-01-11T17:32:48.963Z,98494.78
2023-01-11T17:35:28.626Z,98485.28
2023-01-11T17:38:03.329Z,98486.47
2023-01-11T17:40:38.116Z,98497.09
2023-01-11T17:43:44.114Z,98490.78
2023-01-11T17:46:25.384Z,98500.38
2023-01-11T17:48:57.287Z,98513.97
2023-01-11T17:51:33.780Z,98509.56
2023-01-11T17:54:01.077Z,98517.06
2023-01-11T17:56:41.895Z,98512.72
2023-01-11T17:59:11.496Z,98524.97
2023-01-11T18:01:38.811Z,98524.00
2023-01-11T18:04:05.819Z,98537.81
2023-01-11T18:06:41.903Z,98536.53
2023-01-11T18:09:30.593Z,98545.56
2023-01-11T18:12:20.822Z,98543.72
2023-01-11T18:15:00.764Z,98548.75
2023-01-11T18:17:36.382Z,98550.72
2023-01-11T18:20:29.873Z,98564.34
2023-01-11T18:23:19.815Z,98573.28
2023-01-11T18:25:47.176Z,98574.00
2023-01-11T18:28:29.972Z,98562.72
2023-01-11T18:31:01.625Z,98557.00
2023-01-11T18:33:32.165Z,98564.31
2023-01-11T18:36:03.633Z,98567.16
2023-01-11T18:38:34.059Z,98568.28
2023-01-11T18:41:25.458Z,98572.97
2023-01-11T18:43:53.935Z,98570.56
2023-01-11T18:46:20.969Z,98569.44
2023-01-11T18:48:47.969Z,98576.16
2023-01-11T18:51:31.762Z,98576.84
2023-01-11T18:53:58.726Z,98578.44
2023-01-11T18:56:25.623Z,98587.91
2023-01-11T18:58:52.555Z,98594.28
2023-01-11T19:01:19.766Z,98590.75
2023-01-11T19:03:46.796Z,98597.59
2023-01-11T19:06:14.068Z,98591.56
2023-01-11T19:08:41.056Z,98594.84
2023-01-11T19:11:08.074Z,98588.56
2023-01-11T19:13:35.030Z,98590.81
2023-01-11T19:16:02.096Z,98591.53
2023-01-11T19:18:29.386Z,98584.22
2023-01-11T19:21:02.870Z,98593.84
2023-01-11T19:23:30.008Z,98586.81
2023-01-11T19:26:02.118Z,98597.88
2023-01-11T19:28:29.679Z,98601.03
2023-01-11T19:30:56.815Z,98605.69
2023-01-11T19:33:24.537Z,98610.91
2023-01-11T19:35:51.550Z,98618.53
2023-01-11T19:38:21.609Z,98621.34
2023-01-11T19:40:50.412Z,98618.94
2023-01-11T19:43:18.179Z,98620.13
2023-01-11T19:45:45.148Z,98626.41
2023-01-11T19:48:12.399Z,98626.72
2023-01-11T19:50:39.356Z,98639.44
2023-01-11T19:53:06.406Z,98647.66
2023-01-11T19:55:33.777Z,98642.66
2023-01-11T19:58:02.662Z,98642.53
2023-01-11T20:00:29.927Z,98639.25
2023-01-11T20:02:57.108Z,98631.38
2023-01-11T20:05:24.112Z,98634.69
2023-01-11T20:07:51.105Z,98639.69
2023-01-11T20:10:18.236Z,98637.47
2023-01-11T20:12:45.190Z,98642.41
2023-01-11T20:15:12.310Z,98646.00
2023-01-11T20:17:39.315Z,98651.63
2023-01-11T20:20:07.305Z,98644.34
2023-01-11T20:22:34.302Z,98644.00
2023-01-11T20:25:01.417Z,98642.72
2023-01-11T20:27:28.597Z,98650.34
2023-01-11T20:29:55.919Z,98642.47
2023-01-11T20:32:40.491Z,98642.06
2023-01-11T20:35:09.547Z,98638.31
2023-01-11T20:37:36.461Z,98642.66
2023-01-11T20:40:03.878Z,98653.56
2023-01-11T20:42:31.616Z,98657.13
2023-01-11T20:44:58.618Z,98663.28
2023-01-11T20:47:25.589Z,98668.22
2023-01-11T20:49:52.669Z,98671.56
2023-01-11T20:52:19.783Z,98678.34
2023-01-11T20:54:46.936Z,98677.25
2023-01-11T20:57:13.923Z,98671.84
2023-01-11T20:59:41.137Z,98681.25
2023-01-11T21:02:10.167Z,98681.00
2023-01-11T21:04:37.536Z,98679.63
2023-01-11T21:07:04.783Z,98692.22
2023-01-11T21:09:32.191Z,98683.25
2023-01-11T21:11:59.498Z,98683.16
2023-01-11T21:14:26.723Z,98673.84
2023-01-11T21:16:56.296Z,98681.56
2023-01-11T21:19:23.565Z,98690.03
2023-01-11T21:21:50.962Z,98674.81
2023-01-11T21:24:18.123Z,98668.28
2023-01-11T21:26:45.925Z,98665.38
2023-01-11T21:29:13.602Z,98667.00
2023-01-11T21:31:41.758Z,98673.78
2023-01-11T21:34:13.948Z,98670.44
2023-01-11T21:36:41.508Z,98670.81
2023-01-11T21:39:12.779Z,98673.44
2023-01-11T21:41:58.339Z,98667.66
2023-01-11T21:44:32.439Z,98665.38
2023-01-11T21:47:05.889Z,98669.81
2023-01-11T21:49:33.416Z,98675.22
2023-01-11T21:52:00.458Z,98673.28
2023-01-11T21:54:27.491Z,98674.53
2023-01-11T21:56:54.541Z,98672.09
2023-01-11T21:59:21.662Z,98673.66
2023-01-11T22:01:49.291Z,98679.38
2023-01-11T22:04:20.151Z,98671.88
2023-01-11T22:06:53.910Z,98671.66
2023-01-11T22:09:22.288Z,98661.94
2023-01-11T22:11:50.975Z,98670.38
2023-01-11T22:14:19.193Z,98676.88
2023-01-11T22:16:46.288Z,98681.88
2023-01-11T22:19:14.311Z,98675.53
2023-01-11T22:21:41.341Z,98666.91
2023-01-11T22:24:11.854Z,98669.84
2023-01-11T22:26:39.543Z,98668.53
2023-01-11T22:29:16.873Z,98664.28
2023-01-11T22:31:55.085Z,98670.59
2023-01-11T22:34:23.246Z,98672.09
2023-01-11T22:36:50.921Z,98674.13
2023-01-11T22:39:19.579Z,98683.66
2023-01-11T22:41:49.386Z,98686.56
2023-01-11T22:44:17.284Z,98685.88
2023-01-11T22:46:45.300Z,98691.28
2023-01-11T22:49:13.064Z,98696.78
2023-01-11T22:51:44.113Z,98718.41
2023-01-11T22:54:11.801Z,98711.94
2023-01-11T22:56:39.461Z,98723.44
2023-01-11T22:59:06.728Z,98709.97
2023-01-11T23:01:37.205Z,98704.84
2023-01-11T23:04:06.017Z,98709.38
2023-01-11T23:06:37.383Z,98704.84
2023-01-11T23:09:09.298Z,98701.69
2023-01-11T23:11:57.592Z,98704.63
2023-01-11T23:14:30.986Z,98707.34
2023-01-11T23:17:06.834Z,98711.91
2023-01-11T23:19:39.667Z,98707.50
2023-01-11T23:22:07.905Z,98715.22
2023-01-11T23:24:37.202Z,98708.69
2023-01-11T23:27:04.291Z,98703.72
2023-01-11T23:29:31.304Z,98695.75
2023-01-11T23:31:58.359Z,98696.69
2023-01-11T23:34:25.740Z,98691.19
2023-01-11T23:36:52.720Z,98687.91
2023-01-11T23:39:19.950Z,98686.72
2023-01-11T23:42:05.828Z,98694.56
2023-01-11T23:44:32.852Z,98691.03
2023-01-11T23:47:18.147Z,98705.78
2023-01-11T23:49:45.490Z,98704.94
2023-01-11T23:52:12.534Z,98706.44
2023-01-11T23:54:39.802Z,98696.97
2023-01-11T23:57:07.355Z,98703.25
2023-01-11T23:59:34.458Z,98707.91
